sensor_id;sensor_type;location;lat;lon;timestamp;P1;durP1;ratioP1;P2;durP2;ratioP2
47051;SDS011;33532;41.950;8.754;2022-12-07T05:34:04;3.55;;;2.33;;
47051;SDS011;33532;41.950;8.754;2022-12-07T05:36:29;3.47;;;2.05;;
47051;SDS011;33532;41.950;8.754;2022-12-07T05:38:56;6.93;;;3.22;;
47051;SDS011;33532;41.950;8.754;2022-12-07T05:41:23;3.92;;;2.42;;
47051;SDS011;33532;41.950;8.754;2022-12-07T05:44:07;4.43;;;2.67;;
47051;SDS011;33532;41.950;8.754;2022-12-07T05:46:33;3.90;;;2.25;;
47051;SDS011;33532;41.950;8.754;2022-12-07T05:48:58;4.72;;;2.30;;
47051;SDS011;33532;41.950;8.754;2022-12-07T05:51:24;4.72;;;2.13;;
47051;SDS011;33532;41.950;8.754;2022-12-07T05:53:49;2.70;;;2.33;;
47051;SDS011;33532;41.950;8.754;2022-12-07T05:56:15;3.33;;;2.25;;
47051;SDS011;33532;41.950;8.754;2022-12-07T05:58:40;6.53;;;2.42;;
47051;SDS011;33532;41.950;8.754;2022-12-07T06:01:25;3.60;;;2.17;;
47051;SDS011;33532;41.950;8.754;2022-12-07T06:03:50;6.95;;;2.63;;
47051;SDS011;33532;41.950;8.754;2022-12-07T06:06:15;4.20;;;2.22;;
47051;SDS011;33532;41.950;8.754;2022-12-07T06:08:41;4.60;;;2.40;;
47051;SDS011;33532;41.950;8.754;2022-12-07T06:11:06;3.88;;;1.92;;
47051;SDS011;33532;41.950;8.754;2022-12-07T06:13:55;4.85;;;2.47;;
47051;SDS011;33532;41.950;8.754;2022-12-07T06:16:20;4.53;;;2.53;;
47051;SDS011;33532;41.950;8.754;2022-12-07T06:18:46;3.67;;;2.33;;
47051;SDS011;33532;41.950;8.754;2022-12-07T06:21:11;4.88;;;2.47;;
47051;SDS011;33532;41.950;8.754;2022-12-07T06:23:37;5.68;;;2.63;;
47051;SDS011;33532;41.950;8.754;2022-12-07T06:26:02;6.45;;;3.17;;
47051;SDS011;33532;41.950;8.754;2022-12-07T06:28:28;2.70;;;2.28;;
47051;SDS011;33532;41.950;8.754;2022-12-07T06:31:00;4.20;;;2.20;;
47051;SDS011;33532;41.950;8.754;2022-12-07T06:33:26;5.15;;;2.65;;
47051;SDS011;33532;41.950;8.754;2022-12-07T06:35:52;2.83;;;2.30;;
47051;SDS011;33532;41.950;8.754;2022-12-07T06:38:18;3.33;;;2.70;;
47051;SDS011;33532;41.950;8.754;2022-12-07T06:40:43;3.78;;;2.35;;
47051;SDS011;33532;41.950;8.754;2022-12-07T06:43:09;3.70;;;2.17;;
47051;SDS011;33532;41.950;8.754;2022-12-07T06:45:34;2.72;;;2.42;;
47051;SDS011;33532;41.950;8.754;2022-12-07T06:48:00;6.57;;;2.58;;
47051;SDS011;33532;41.950;8.754;2022-12-07T06:50:25;4.40;;;2.08;;
47051;SDS011;33532;41.950;8.754;2022-12-07T06:52:51;4.60;;;2.28;;
47051;SDS011;33532;41.950;8.754;2022-12-07T06:55:17;4.90;;;2.17;;
47051;SDS011;33532;41.950;8.754;2022-12-07T06:57:42;4.70;;;2.22;;
47051;SDS011;33532;41.950;8.754;2022-12-07T07:00:08;3.38;;;2.05;;
47051;SDS011;33532;41.950;8.754;2022-12-07T07:02:34;4.78;;;2.63;;
47051;SDS011;33532;41.950;8.754;2022-12-07T07:04:59;3.72;;;2.17;;
47051;SDS011;33532;41.950;8.754;2022-12-07T07:07:25;4.63;;;2.70;;
47051;SDS011;33532;41.950;8.754;2022-12-07T07:09:50;3.15;;;2.60;;
47051;SDS011;33532;41.950;8.754;2022-12-07T07:12:16;6.93;;;2.20;;
47051;SDS011;33532;41.950;8.754;2022-12-07T07:14:41;3.85;;;2.83;;
47051;SDS011;33532;41.950;8.754;2022-12-07T07:17:08;5.70;;;2.50;;
47051;SDS011;33532;41.950;8.754;2022-12-07T07:19:33;7.90;;;3.30;;
47051;SDS011;33532;41.950;8.754;2022-12-07T07:21:59;4.65;;;2.47;;
47051;SDS011;33532;41.950;8.754;2022-12-07T07:24:24;4.70;;;2.08;;
47051;SDS011;33532;41.950;8.754;2022-12-07T07:26:49;6.10;;;2.30;;
47051;SDS011;33532;41.950;8.754;2022-12-07T07:29:15;3.47;;;1.92;;
47051;SDS011;33532;41.950;8.754;2022-12-07T07:31:40;4.35;;;2.33;;
47051;SDS011;33532;41.950;8.754;2022-12-07T07:34:05;5.47;;;2.00;;
47051;SDS011;33532;41.950;8.754;2022-12-07T07:36:32;3.95;;;2.35;;
47051;SDS011;33532;41.950;8.754;2022-12-07T07:38:57;7.10;;;2.45;;
47051;SDS011;33532;41.950;8.754;2022-12-07T07:41:23;6.68;;;2.17;;
47051;SDS011;33532;41.950;8.754;2022-12-07T07:43:48;4.30;;;2.03;;
47051;SDS011;33532;41.950;8.754;2022-12-07T07:46:13;4.50;;;2.15;;
47051;SDS011;33532;41.950;8.754;2022-12-07T07:48:39;3.33;;;2.55;;
47051;SDS011;33532;41.950;8.754;2022-12-07T07:51:05;4.93;;;2.70;;
47051;SDS011;33532;41.950;8.754;2022-12-07T07:53:32;5.75;;;3.92;;
47051;SDS011;33532;41.950;8.754;2022-12-07T07:55:57;4.15;;;2.78;;
47051;SDS011;33532;41.950;8.754;2022-12-07T07:58:23;3.95;;;2.60;;
47051;SDS011;33532;41.950;8.754;2022-12-07T08:00:48;4.68;;;2.47;;
47051;SDS011;33532;41.950;8.754;2022-12-07T08:03:14;4.13;;;2.80;;
47051;SDS011;33532;41.950;8.754;2022-12-07T08:05:39;5.20;;;3.13;;
47051;SDS011;33532;41.950;8.754;2022-12-07T08:08:05;6.80;;;3.03;;
47051;SDS011;33532;41.950;8.754;2022-12-07T08:10:30;6.97;;;3.17;;
47051;SDS011;33532;41.950;8.754;2022-12-07T08:12:57;4.40;;;2.95;;
47051;SDS011;33532;41.950;8.754;2022-12-07T08:15:36;4.57;;;2.85;;
47051;SDS011;33532;41.950;8.754;2022-12-07T08:18:02;7.00;;;3.30;;
47051;SDS011;33532;41.950;8.754;2022-12-07T08:20:29;4.32;;;3.45;;
47051;SDS011;33532;41.950;8.754;2022-12-07T08:22:55;5.60;;;3.92;;
47051;SDS011;33532;41.950;8.754;2022-12-07T08:25:21;4.50;;;3.25;;
47051;SDS011;33532;41.950;8.754;2022-12-07T08:27:49;5.60;;;3.53;;
47051;SDS011;33532;41.950;8.754;2022-12-07T08:30:16;5.50;;;2.97;;
47051;SDS011;33532;41.950;8.754;2022-12-07T08:32:43;5.22;;;3.72;;
47051;SDS011;33532;41.950;8.754;2022-12-07T08:35:09;5.07;;;3.38;;
47051;SDS011;33532;41.950;8.754;2022-12-07T08:37:35;5.93;;;3.65;;
47051;SDS011;33532;41.950;8.754;2022-12-07T08:40:00;5.22;;;4.18;;
47051;SDS011;33532;41.950;8.754;2022-12-07T08:42:26;5.15;;;2.97;;
47051;SDS011;33532;41.950;8.754;2022-12-07T08:44:55;10.77;;;5.07;;
47051;SDS011;33532;41.950;8.754;2022-12-07T08:47:21;4.88;;;3.15;;
47051;SDS011;33532;41.950;8.754;2022-12-07T08:49:47;4.88;;;3.33;;
47051;SDS011;33532;41.950;8.754;2022-12-07T08:52:13;6.22;;;3.78;;
47051;SDS011;33532;41.950;8.754;2022-12-07T08:54:39;5.65;;;3.60;;
47051;SDS011;33532;41.950;8.754;2022-12-07T08:57:05;6.65;;;3.50;;
47051;SDS011;33532;41.950;8.754;2022-12-07T08:59:31;6.43;;;3.40;;
47051;SDS011;33532;41.950;8.754;2022-12-07T09:01:58;8.57;;;4.60;;
47051;SDS011;33532;41.950;8.754;2022-12-07T09:04:23;6.28;;;3.45;;
47051;SDS011;33532;41.950;8.754;2022-12-07T09:06:49;11.20;;;4.63;;
47051;SDS011;33532;41.950;8.754;2022-12-07T09:09:14;6.85;;;4.60;;
47051;SDS011;33532;41.950;8.754;2022-12-07T09:11:40;6.60;;;3.67;;
47051;SDS011;33532;41.950;8.754;2022-12-07T09:14:06;7.07;;;3.72;;
47051;SDS011;33532;41.950;8.754;2022-12-07T09:16:31;6.10;;;3.20;;
47051;SDS011;33532;41.950;8.754;2022-12-07T09:18:57;5.78;;;4.25;;
47051;SDS011;33532;41.950;8.754;2022-12-07T09:21:22;6.88;;;3.67;;
47051;SDS011;33532;41.950;8.754;2022-12-07T09:23:48;8.38;;;4.35;;
47051;SDS011;33532;41.950;8.754;2022-12-07T09:26:13;7.40;;;4.07;;
47051;SDS011;33532;41.950;8.754;2022-12-07T09:28:38;6.03;;;4.30;;
47051;SDS011;33532;41.950;8.754;2022-12-07T09:31:04;6.20;;;4.07;;
47051;SDS011;33532;41.950;8.754;2022-12-07T09:33:30;9.18;;;4.55;;
47051;SDS011;33532;41.950;8.754;2022-12-07T09:35:56;5.68;;;4.22;;
47051;SDS011;33532;41.950;8.754;2022-12-07T09:38:21;8.38;;;3.95;;
47051;SDS011;33532;41.950;8.754;2022-12-07T09:40:47;5.13;;;3.90;;
47051;SDS011;33532;41.950;8.754;2022-12-07T09:43:13;5.38;;;3.78;;
47051;SDS011;33532;41.950;8.754;2022-12-07T09:45:40;6.75;;;3.58;;
47051;SDS011;33532;41.950;8.754;2022-12-07T09:48:08;6.03;;;4.15;;
47051;SDS011;33532;41.950;8.754;2022-12-07T09:50:42;7.03;;;4.05;;
47051;SDS011;33532;41.950;8.754;2022-12-07T09:53:09;7.55;;;3.67;;
47051;SDS011;33532;41.950;8.754;2022-12-07T09:55:38;8.80;;;3.80;;
47051;SDS011;33532;41.950;8.754;2022-12-07T09:58:03;6.97;;;3.72;;
47051;SDS011;33532;41.950;8.754;2022-12-07T10:00:29;7.15;;;4.35;;
47051;SDS011;33532;41.950;8.754;2022-12-07T10:02:55;6.15;;;4.13;;
47051;SDS011;33532;41.950;8.754;2022-12-07T10:05:42;7.50;;;4.70;;
47051;SDS011;33532;41.950;8.754;2022-12-07T10:08:13;5.90;;;4.88;;
47051;SDS011;33532;41.950;8.754;2022-12-07T10:10:40;7.15;;;4.47;;
47051;SDS011;33532;41.950;8.754;2022-12-07T10:13:10;6.90;;;4.28;;
47051;SDS011;33532;41.950;8.754;2022-12-07T10:18:17;7.10;;;3.97;;
47051;SDS011;33532;41.950;8.754;2022-12-07T10:20:44;10.80;;;4.22;;
47051;SDS011;33532;41.950;8.754;2022-12-07T10:23:17;6.18;;;4.07;;
47051;SDS011;33532;41.950;8.754;2022-12-07T10:25:44;5.57;;;3.92;;
47051;SDS011;33532;41.950;8.754;2022-12-07T10:31:24;6.50;;;4.40;;
47051;SDS011;33532;41.950;8.754;2022-12-07T10:33:56;5.90;;;4.25;;
47051;SDS011;33532;41.950;8.754;2022-12-07T10:36:29;6.18;;;4.13;;
47051;SDS011;33532;41.950;8.754;2022-12-07T10:39:14;8.40;;;4.57;;
47051;SDS011;33532;41.950;8.754;2022-12-07T10:41:57;7.13;;;4.25;;
47051;SDS011;33532;41.950;8.754;2022-12-07T10:44:28;6.00;;;4.30;;
47051;SDS011;33532;41.950;8.754;2022-12-07T10:52:18;7.40;;;4.03;;
47051;SDS011;33532;41.950;8.754;2022-12-07T10:57:36;5.57;;;3.63;;
47051;SDS011;33532;41.950;8.754;2022-12-07T11:02:54;5.38;;;3.92;;
47051;SDS011;33532;41.950;8.754;2022-12-07T11:11:24;9.27;;;3.97;;
47051;SDS011;33532;41.950;8.754;2022-12-07T11:14:03;4.75;;;3.65;;
47051;SDS011;33532;41.950;8.754;2022-12-07T11:19:44;7.18;;;4.20;;
47051;SDS011;33532;41.950;8.754;2022-12-07T11:28:14;4.68;;;3.30;;
47051;SDS011;33532;41.950;8.754;2022-12-07T11:33:53;5.97;;;3.50;;
47051;SDS011;33532;41.950;8.754;2022-12-07T11:39:00;5.25;;;3.55;;
47051;SDS011;33532;41.950;8.754;2022-12-07T11:41:28;6.07;;;3.95;;
47051;SDS011;33532;41.950;8.754;2022-12-07T11:44:08;5.65;;;4.20;;
47051;SDS011;33532;41.950;8.754;2022-12-07T11:49:14;7.60;;;4.85;;
47051;SDS011;33532;41.950;8.754;2022-12-07T11:51:46;9.05;;;4.88;;
47051;SDS011;33532;41.950;8.754;2022-12-07T11:54:15;7.82;;;4.50;;
47051;SDS011;33532;41.950;8.754;2022-12-07T11:56:45;5.05;;;4.05;;
47051;SDS011;33532;41.950;8.754;2022-12-07T11:59:13;5.95;;;4.40;;
47051;SDS011;33532;41.950;8.754;2022-12-07T12:01:54;6.78;;;4.47;;
47051;SDS011;33532;41.950;8.754;2022-12-07T12:06:52;6.50;;;4.80;;
47051;SDS011;33532;41.950;8.754;2022-12-07T12:09:20;5.88;;;4.05;;
47051;SDS011;33532;41.950;8.754;2022-12-07T12:20:06;4.65;;;3.63;;
47051;SDS011;33532;41.950;8.754;2022-12-07T12:28:18;3.92;;;3.17;;
47051;SDS011;33532;41.950;8.754;2022-12-07T12:30:51;6.88;;;4.03;;
47051;SDS011;33532;41.950;8.754;2022-12-07T12:33:52;4.43;;;3.65;;
47051;SDS011;33532;41.950;8.754;2022-12-07T12:46:55;6.85;;;3.53;;
47051;SDS011;33532;41.950;8.754;2022-12-07T12:51:51;4.93;;;3.60;;
47051;SDS011;33532;41.950;8.754;2022-12-07T12:59:27;4.03;;;2.78;;
47051;SDS011;33532;41.950;8.754;2022-12-07T13:21:01;7.28;;;2.92;;
47051;SDS011;33532;41.950;8.754;2022-12-07T13:23:36;5.45;;;2.95;;
47051;SDS011;33532;41.950;8.754;2022-12-07T13:29:17;4.68;;;2.75;;
47051;SDS011;33532;41.950;8.754;2022-12-07T13:34:27;3.78;;;2.38;;
47051;SDS011;33532;41.950;8.754;2022-12-07T13:36:59;6.75;;;3.45;;
47051;SDS011;33532;41.950;8.754;2022-12-07T13:39:27;3.55;;;2.42;;
47051;SDS011;33532;41.950;8.754;2022-12-07T13:41:53;6.72;;;2.83;;
47051;SDS011;33532;41.950;8.754;2022-12-07T13:44:22;3.83;;;2.80;;
47051;SDS011;33532;41.950;8.754;2022-12-07T13:49:30;2.95;;;2.55;;
47051;SDS011;33532;41.950;8.754;2022-12-07T13:52:08;4.38;;;2.38;;
47051;SDS011;33532;41.950;8.754;2022-12-07T13:55:00;3.28;;;2.58;;
47051;SDS011;33532;41.950;8.754;2022-12-07T13:57:33;7.30;;;3.35;;
47051;SDS011;33532;41.950;8.754;2022-12-07T14:00:05;4.22;;;2.83;;
47051;SDS011;33532;41.950;8.754;2022-12-07T14:02:32;4.53;;;2.63;;
47051;SDS011;33532;41.950;8.754;2022-12-07T14:07:48;3.70;;;2.60;;
47051;SDS011;33532;41.950;8.754;2022-12-07T14:13:01;3.38;;;2.40;;
47051;SDS011;33532;41.950;8.754;2022-12-07T14:15:29;4.03;;;2.78;;
47051;SDS011;33532;41.950;8.754;2022-12-07T14:17:56;4.05;;;2.25;;
47051;SDS011;33532;41.950;8.754;2022-12-07T14:20:39;3.65;;;2.55;;
47051;SDS011;33532;41.950;8.754;2022-12-07T14:23:19;3.30;;;2.97;;
47051;SDS011;33532;41.950;8.754;2022-12-07T14:25:48;3.97;;;2.75;;
47051;SDS011;33532;41.950;8.754;2022-12-07T14:31:14;4.20;;;2.05;;
47051;SDS011;33532;41.950;8.754;2022-12-07T14:33:41;2.22;;;1.92;;
47051;SDS011;33532;41.950;8.754;2022-12-07T14:36:16;3.03;;;2.08;;
47051;SDS011;33532;41.950;8.754;2022-12-07T14:38:41;4.17;;;2.50;;
47051;SDS011;33532;41.950;8.754;2022-12-07T14:41:10;3.97;;;3.38;;
47051;SDS011;33532;41.950;8.754;2022-12-07T14:43:58;3.63;;;3.00;;
47051;SDS011;33532;41.950;8.754;2022-12-07T14:46:23;3.42;;;3.13;;
47051;SDS011;33532;41.950;8.754;2022-12-07T14:48:49;3.22;;;2.70;;
47051;SDS011;33532;41.950;8.754;2022-12-07T14:51:15;2.67;;;2.05;;
47051;SDS011;33532;41.950;8.754;2022-12-07T14:53:42;3.25;;;2.47;;
47051;SDS011;33532;41.950;8.754;2022-12-07T14:56:09;3.45;;;2.42;;
47051;SDS011;33532;41.950;8.754;2022-12-07T14:58:35;3.17;;;2.63;;
47051;SDS011;33532;41.950;8.754;2022-12-07T15:01:00;6.18;;;2.40;;
47051;SDS011;33532;41.950;8.754;2022-12-07T15:03:26;3.65;;;2.30;;
47051;SDS011;33532;41.950;8.754;2022-12-07T15:05:51;2.75;;;2.25;;
47051;SDS011;33532;41.950;8.754;2022-12-07T15:08:17;2.47;;;2.28;;
47051;SDS011;33532;41.950;8.754;2022-12-07T15:10:42;2.75;;;2.20;;
47051;SDS011;33532;41.950;8.754;2022-12-07T15:13:08;2.83;;;2.45;;
47051;SDS011;33532;41.950;8.754;2022-12-07T15:15:53;4.15;;;2.60;;
47051;SDS011;33532;41.950;8.754;2022-12-07T15:18:19;2.65;;;2.15;;
47051;SDS011;33532;41.950;8.754;2022-12-07T15:20:45;2.90;;;2.22;;
47051;SDS011;33532;41.950;8.754;2022-12-07T15:23:12;2.38;;;2.17;;
47051;SDS011;33532;41.950;8.754;2022-12-07T15:25:41;3.60;;;2.92;;
47051;SDS011;33532;41.950;8.754;2022-12-07T15:28:07;2.92;;;1.80;;
47051;SDS011;33532;41.950;8.754;2022-12-07T15:30:32;3.42;;;2.67;;
47051;SDS011;33532;41.950;8.754;2022-12-07T15:32:58;3.90;;;2.30;;
47051;SDS011;33532;41.950;8.754;2022-12-07T15:35:23;2.63;;;2.33;;
47051;SDS011;33532;41.950;8.754;2022-12-07T15:37:49;3.95;;;2.67;;
47051;SDS011;33532;41.950;8.754;2022-12-07T15:40:14;2.30;;;1.98;;
47051;SDS011;33532;41.950;8.754;2022-12-07T15:42:40;4.32;;;2.20;;
47051;SDS011;33532;41.950;8.754;2022-12-07T15:45:06;4.03;;;2.42;;
47051;SDS011;33532;41.950;8.754;2022-12-07T15:47:36;4.05;;;2.72;;
47051;SDS011;33532;41.950;8.754;2022-12-07T15:50:04;4.40;;;2.80;;
47051;SDS011;33532;41.950;8.754;2022-12-07T15:52:31;6.00;;;2.50;;
47051;SDS011;33532;41.950;8.754;2022-12-07T15:54:56;3.50;;;2.78;;
47051;SDS011;33532;41.950;8.754;2022-12-07T15:57:22;3.85;;;2.38;;
47051;SDS011;33532;41.950;8.754;2022-12-07T15:59:47;4.05;;;2.05;;
47051;SDS011;33532;41.950;8.754;2022-12-07T16:02:13;3.13;;;2.47;;
47051;SDS011;33532;41.950;8.754;2022-12-07T16:04:38;6.40;;;2.38;;
47051;SDS011;33532;41.950;8.754;2022-12-07T16:07:04;4.35;;;1.90;;
47051;SDS011;33532;41.950;8.754;2022-12-07T16:09:29;2.50;;;2.20;;
47051;SDS011;33532;41.950;8.754;2022-12-07T16:11:55;3.22;;;2.10;;
47051;SDS011;33532;41.950;8.754;2022-12-07T16:14:20;3.20;;;2.25;;
47051;SDS011;33532;41.950;8.754;2022-12-07T16:16:46;5.18;;;2.38;;
47051;SDS011;33532;41.950;8.754;2022-12-07T16:19:12;4.60;;;2.40;;
47051;SDS011;33532;41.950;8.754;2022-12-07T16:21:38;3.08;;;2.45;;
47051;SDS011;33532;41.950;8.754;2022-12-07T16:24:03;3.63;;;2.30;;
47051;SDS011;33532;41.950;8.754;2022-12-07T16:26:30;2.88;;;2.30;;
47051;SDS011;33532;41.950;8.754;2022-12-07T16:28:55;3.05;;;2.58;;
47051;SDS011;33532;41.950;8.754;2022-12-07T16:31:22;3.47;;;2.30;;
47051;SDS011;33532;41.950;8.754;2022-12-07T16:33:49;4.70;;;2.17;;
47051;SDS011;33532;41.950;8.754;2022-12-07T16:36:16;9.45;;;2.40;;
47051;SDS011;33532;41.950;8.754;2022-12-07T16:38:42;3.13;;;2.17;;
47051;SDS011;33532;41.950;8.754;2022-12-07T16:41:08;4.85;;;2.35;;
47051;SDS011;33532;41.950;8.754;2022-12-07T16:43:33;3.92;;;2.28;;
47051;SDS011;33532;41.950;8.754;2022-12-07T16:45:59;5.22;;;2.72;;
47051;SDS011;33532;41.950;8.754;2022-12-07T16:48:25;3.05;;;2.17;;
47051;SDS011;33532;41.950;8.754;2022-12-07T16:50:50;5.95;;;2.65;;
47051;SDS011;33532;41.950;8.754;2022-12-07T16:53:18;2.75;;;2.08;;
47051;SDS011;33532;41.950;8.754;2022-12-07T16:55:44;3.45;;;2.50;;
47051;SDS011;33532;41.950;8.754;2022-12-07T16:58:13;4.53;;;2.65;;
47051;SDS011;33532;41.950;8.754;2022-12-07T17:00:40;5.40;;;2.53;;
47051;SDS011;33532;41.950;8.754;2022-12-07T17:03:06;3.80;;;2.40;;
47051;SDS011;33532;41.950;8.754;2022-12-07T17:05:32;4.35;;;3.13;;
47051;SDS011;33532;41.950;8.754;2022-12-07T17:07:57;3.33;;;2.75;;
47051;SDS011;33532;41.950;8.754;2022-12-07T17:10:23;5.60;;;3.33;;
47051;SDS011;33532;41.950;8.754;2022-12-07T17:12:50;4.72;;;2.53;;
47051;SDS011;33532;41.950;8.754;2022-12-07T17:15:16;8.75;;;2.85;;
47051;SDS011;33532;41.950;8.754;2022-12-07T17:17:45;6.88;;;3.35;;
47051;SDS011;33532;41.950;8.754;2022-12-07T17:20:19;3.70;;;2.92;;
47051;SDS011;33532;41.950;8.754;2022-12-07T17:22:45;5.38;;;2.78;;
47051;SDS011;33532;41.950;8.754;2022-12-07T17:25:11;6.97;;;2.75;;
47051;SDS011;33532;41.950;8.754;2022-12-07T17:27:36;6.78;;;3.17;;
47051;SDS011;33532;41.950;8.754;2022-12-07T17:30:05;5.40;;;2.97;;
47051;SDS011;33532;41.950;8.754;2022-12-07T17:32:32;6.32;;;3.17;;
47051;SDS011;33532;41.950;8.754;2022-12-07T17:34:57;4.18;;;3.03;;
47051;SDS011;33532;41.950;8.754;2022-12-07T17:37:23;3.22;;;2.60;;
47051;SDS011;33532;41.950;8.754;2022-12-07T17:39:49;3.97;;;2.80;;
47051;SDS011;33532;41.950;8.754;2022-12-07T17:42:14;4.45;;;2.90;;
47051;SDS011;33532;41.950;8.754;2022-12-07T17:44:58;4.07;;;2.85;;
47051;SDS011;33532;41.950;8.754;2022-12-07T17:47:24;6.57;;;3.90;;
47051;SDS011;33532;41.950;8.754;2022-12-07T17:49:49;4.53;;;3.63;;
47051;SDS011;33532;41.950;8.754;2022-12-07T17:52:15;5.53;;;3.13;;
47051;SDS011;33532;41.950;8.754;2022-12-07T17:55:15;4.00;;;2.90;;
47051;SDS011;33532;41.950;8.754;2022-12-07T17:57:42;6.35;;;3.58;;
47051;SDS011;33532;41.950;8.754;2022-12-07T18:00:08;5.78;;;3.08;;
47051;SDS011;33532;41.950;8.754;2022-12-07T18:02:35;4.28;;;3.60;;
47051;SDS011;33532;41.950;8.754;2022-12-07T18:05:01;6.18;;;3.53;;
47051;SDS011;33532;41.950;8.754;2022-12-07T18:07:26;5.05;;;3.88;;
47051;SDS011;33532;41.950;8.754;2022-12-07T18:09:52;5.28;;;4.00;;
47051;SDS011;33532;41.950;8.754;2022-12-07T18:12:18;6.93;;;3.30;;
47051;SDS011;33532;41.950;8.754;2022-12-07T18:14:43;4.28;;;2.70;;
47051;SDS011;33532;41.950;8.754;2022-12-07T18:17:09;4.55;;;3.17;;
47051;SDS011;33532;41.950;8.754;2022-12-07T18:19:34;4.57;;;3.25;;
47051;SDS011;33532;41.950;8.754;2022-12-07T18:22:02;4.43;;;3.00;;
47051;SDS011;33532;41.950;8.754;2022-12-07T18:24:28;4.78;;;3.63;;
47051;SDS011;33532;41.950;8.754;2022-12-07T18:26:54;4.82;;;3.13;;
47051;SDS011;33532;41.950;8.754;2022-12-07T18:29:19;4.80;;;3.55;;
47051;SDS011;33532;41.950;8.754;2022-12-07T18:31:45;7.00;;;3.22;;
47051;SDS011;33532;41.950;8.754;2022-12-07T18:34:12;4.43;;;3.60;;
47051;SDS011;33532;41.950;8.754;2022-12-07T18:36:39;7.00;;;3.80;;
47051;SDS011;33532;41.950;8.754;2022-12-07T18:39:12;9.15;;;3.63;;
47051;SDS011;33532;41.950;8.754;2022-12-07T18:41:39;5.28;;;3.63;;
47051;SDS011;33532;41.950;8.754;2022-12-07T18:44:05;5.93;;;3.70;;
47051;SDS011;33532;41.950;8.754;2022-12-07T18:46:31;8.15;;;4.57;;
47051;SDS011;33532;41.950;8.754;2022-12-07T18:48:57;5.85;;;3.22;;
47051;SDS011;33532;41.950;8.754;2022-12-07T18:51:24;4.40;;;3.38;;
47051;SDS011;33532;41.950;8.754;2022-12-07T18:53:50;4.63;;;3.72;;
47051;SDS011;33532;41.950;8.754;2022-12-07T18:56:20;4.78;;;3.97;;
47051;SDS011;33532;41.950;8.754;2022-12-07T18:58:50;6.40;;;3.55;;
47051;SDS011;33532;41.950;8.754;2022-12-07T19:01:36;5.22;;;3.33;;
47051;SDS011;33532;41.950;8.754;2022-12-07T19:04:01;6.10;;;3.42;;
47051;SDS011;33532;41.950;8.754;2022-12-07T19:06:27;5.05;;;4.07;;
47051;SDS011;33532;41.950;8.754;2022-12-07T19:08:53;5.82;;;3.42;;
47051;SDS011;33532;41.950;8.754;2022-12-07T19:11:29;6.82;;;3.92;;
47051;SDS011;33532;41.950;8.754;2022-12-07T19:14:18;5.07;;;3.13;;
47051;SDS011;33532;41.950;8.754;2022-12-07T19:16:45;5.65;;;3.30;;
47051;SDS011;33532;41.950;8.754;2022-12-07T19:19:14;5.13;;;3.22;;
47051;SDS011;33532;41.950;8.754;2022-12-07T19:21:40;4.85;;;3.30;;
47051;SDS011;33532;41.950;8.754;2022-12-07T19:24:05;4.70;;;3.60;;
47051;SDS011;33532;41.950;8.754;2022-12-07T19:26:31;4.78;;;3.08;;
47051;SDS011;33532;41.950;8.754;2022-12-07T19:28:57;4.28;;;3.22;;
47051;SDS011;33532;41.950;8.754;2022-12-07T19:31:22;4.78;;;3.28;;
47051;SDS011;33532;41.950;8.754;2022-12-07T19:33:48;5.60;;;3.30;;
47051;SDS011;33532;41.950;8.754;2022-12-07T19:36:13;4.05;;;3.05;;
47051;SDS011;33532;41.950;8.754;2022-12-07T19:38:38;5.28;;;3.05;;
47051;SDS011;33532;41.950;8.754;2022-12-07T19:41:04;3.88;;;3.28;;
47051;SDS011;33532;41.950;8.754;2022-12-07T19:43:52;4.75;;;3.30;;
47051;SDS011;33532;41.950;8.754;2022-12-07T19:46:18;5.03;;;3.78;;
47051;SDS011;33532;41.950;8.754;2022-12-07T19:48:43;4.80;;;3.70;;
47051;SDS011;33532;41.950;8.754;2022-12-07T19:51:09;4.50;;;3.80;;
47051;SDS011;33532;41.950;8.754;2022-12-07T19:53:34;5.45;;;3.03;;
47051;SDS011;33532;41.950;8.754;2022-12-07T19:55:59;3.85;;;3.47;;
47051;SDS011;33532;41.950;8.754;2022-12-07T19:58:25;4.20;;;3.38;;
47051;SDS011;33532;41.950;8.754;2022-12-07T20:00:51;5.88;;;3.55;;
47051;SDS011;33532;41.950;8.754;2022-12-07T20:03:17;4.70;;;3.78;;
47051;SDS011;33532;41.950;8.754;2022-12-07T20:05:42;4.90;;;3.83;;
47051;SDS011;33532;41.950;8.754;2022-12-07T20:08:07;5.95;;;3.90;;
47051;SDS011;33532;41.950;8.754;2022-12-07T20:10:33;6.07;;;4.00;;
47051;SDS011;33532;41.950;8.754;2022-12-07T20:12:59;4.93;;;3.40;;
47051;SDS011;33532;41.950;8.754;2022-12-07T20:15:43;5.07;;;3.43;;
47051;SDS011;33532;41.950;8.754;2022-12-07T20:18:09;6.53;;;3.55;;
47051;SDS011;33532;41.950;8.754;2022-12-07T20:20:34;4.55;;;3.83;;
47051;SDS011;33532;41.950;8.754;2022-12-07T20:23:00;4.63;;;3.78;;
47051;SDS011;33532;41.950;8.754;2022-12-07T20:25:25;5.63;;;4.30;;
47051;SDS011;33532;41.950;8.754;2022-12-07T20:27:51;5.25;;;3.72;;
47051;SDS011;33532;41.950;8.754;2022-12-07T20:30:16;5.10;;;3.30;;
47051;SDS011;33532;41.950;8.754;2022-12-07T20:32:42;4.35;;;3.85;;
47051;SDS011;33532;41.950;8.754;2022-12-07T20:35:07;4.38;;;3.63;;
47051;SDS011;33532;41.950;8.754;2022-12-07T20:37:34;3.85;;;3.47;;
47051;SDS011;33532;41.950;8.754;2022-12-07T20:39:59;5.60;;;3.90;;
47051;SDS011;33532;41.950;8.754;2022-12-07T20:42:26;3.95;;;3.60;;
47051;SDS011;33532;41.950;8.754;2022-12-07T20:45:00;5.07;;;3.72;;
47051;SDS011;33532;41.950;8.754;2022-12-07T20:47:27;4.95;;;3.90;;
47051;SDS011;33532;41.950;8.754;2022-12-07T20:49:52;6.63;;;4.00;;
47051;SDS011;33532;41.950;8.754;2022-12-07T20:52:18;6.53;;;4.00;;
47051;SDS011;33532;41.950;8.754;2022-12-07T20:54:45;7.15;;;4.13;;
47051;SDS011;33532;41.950;8.754;2022-12-07T20:57:11;8.52;;;4.57;;
47051;SDS011;33532;41.950;8.754;2022-12-07T20:59:36;8.75;;;4.53;;
47051;SDS011;33532;41.950;8.754;2022-12-07T21:02:02;6.93;;;4.13;;
47051;SDS011;33532;41.950;8.754;2022-12-07T21:04:27;6.57;;;3.85;;
47051;SDS011;33532;41.950;8.754;2022-12-07T21:06:52;10.52;;;5.32;;
47051;SDS011;33532;41.950;8.754;2022-12-07T21:09:18;6.30;;;4.22;;
47051;SDS011;33532;41.950;8.754;2022-12-07T21:11:50;8.73;;;4.57;;
47051;SDS011;33532;41.950;8.754;2022-12-07T21:14:15;5.32;;;3.63;;
47051;SDS011;33532;41.950;8.754;2022-12-07T21:16:41;6.00;;;3.65;;
47051;SDS011;33532;41.950;8.754;2022-12-07T21:19:06;8.10;;;4.38;;
47051;SDS011;33532;41.950;8.754;2022-12-07T21:21:32;4.45;;;3.78;;
47051;SDS011;33532;41.950;8.754;2022-12-07T21:23:58;7.95;;;4.13;;
